Aérodrome :
LOGIN :

S'inscrire | Disclaimer

   EN    FR    IT 

 










Légende :    VFR   VFR Marginal   IFR   IFR Intensif   IFR Très Intensif
Visi : 
Plafond : 
>= 8 km
>= 3000ft
5 à 8 km
1000 à 3000 ft
1500m à 5 km
500 à 1000 ft
800 à 1500m
200 à 500 ft
< 800m
< 200 ft
Symboles :   Orages  Brouillard  Fortes neiges  Fortes précipitations  Vent > 20 kt
SIGMETs :   Divers  Orages  Givrage  Turbulence  Onde Orograph.  Cendres Volcan.






- Altitude de l'aérodrome : 8 ft
- Code IATA : LCA


LCLK - Larnaca Int.

DERNIER METAR :
  • 250530Z 35009KT 9999 FEW030 SCT040 17/10 Q1011 NOSIG

METARs EXPIRÉS :
  • 250500Z 35009KT 9999 FEW030 16/10 Q1011 NOSIG
  • 250430Z 34009KT 9999 FEW030 SCT040 16/10 Q1011 NOSIG
  • 250400Z 35009KT 9999 FEW030 16/10 Q1010 NOSIG
  • 250330Z 33008KT 9999 FEW030 SCT050 16/10 Q1011 NOSIG
  • 250300Z 33007KT 9999 SCT050 16/10 Q1011 NOSIG

TAF TAF LCLK
Valide du 25 à 06h jusqu'au 26 à 06h UTC


250530Z 2506/2606 04014KT 9999 FEW025
PROB30
TEMPO 2512/2520 5000 SHRA SCT020TCU
BECMG 2521/2523 34020KT



MET'MAP, la Météo Aéronautique d'un coup d'oeil ! - Copyright ORBIFLY Décembre 2007 - Disclaimer

ORBIFLY MET'MAP TEAM :

Programmation & Développement : Alexandra Zaïnal
Sur une idée originale de : Baudouin d'Aumeries
Assistance à la programmation : Marc-Olivier Méhu
Soutien technique & logistique : Manuel Goepfert

Contact : metmap@orbifly.com




SOURCES & CREDITS :

   NOAA